createdAt,value
2019-06-01T00:00:16.867Z,55.64
2019-06-01T00:04:24.284Z,55.03
2019-06-01T00:08:29.980Z,55.19
2019-06-01T00:12:35.677Z,55.42
2019-06-01T00:16:41.994Z,55.19
2019-06-01T00:20:48.646Z,55.21
2019-06-01T00:24:54.366Z,55.20
2019-06-01T00:29:00.240Z,54.94
2019-06-01T00:33:06.053Z,55.21
2019-06-01T00:37:11.808Z,55.24
2019-06-01T00:41:17.485Z,54.94
2019-06-01T00:45:23.296Z,55.23
2019-06-01T00:49:29.071Z,55.23
2019-06-01T00:53:34.750Z,55.21
2019-06-01T00:57:40.411Z,55.59
2019-06-01T01:01:46.191Z,55.06
2019-06-01T01:05:52.749Z,55.21
2019-06-01T01:09:58.418Z,55.78
2019-06-01T01:14:05.791Z,56.14
2019-06-01T01:18:12.976Z,56.13
2019-06-01T01:22:18.769Z,56.27
2019-06-01T01:26:24.482Z,56.62
2019-06-01T01:30:30.290Z,56.03
2019-06-01T01:34:35.974Z,55.97
2019-06-01T01:38:41.666Z,56.45
2019-06-01T01:42:48.643Z,56.51
2019-06-01T01:46:54.909Z,56.13
2019-06-01T01:51:00.791Z,56.11
2019-06-01T01:55:09.517Z,56.39
2019-06-01T01:59:15.219Z,56.35
2019-06-01T02:03:20.968Z,56.50
2019-06-01T02:07:26.878Z,56.70
2019-06-01T02:11:32.579Z,57.06
2019-06-01T02:15:40.645Z,57.02
2019-06-01T02:19:46.389Z,57.08
2019-06-01T02:23:52.945Z,57.27
2019-06-01T02:27:59.270Z,57.54
2019-06-01T02:32:06.721Z,57.56
2019-06-01T02:36:12.559Z,57.18
2019-06-01T02:40:20.557Z,57.35
2019-06-01T02:44:26.371Z,57.56
2019-06-01T02:48:32.059Z,57.24
2019-06-01T02:52:38.281Z,57.86
2019-06-01T02:56:44.978Z,58.70
2019-06-01T03:01:16.282Z,58.53
2019-06-01T03:05:22.575Z,58.04
2019-06-01T03:09:32.193Z,58.04
2019-06-01T03:13:42.360Z,57.55
2019-06-01T03:17:49.454Z,58.24
2019-06-01T03:21:59.793Z,58.88
2019-06-01T03:26:09.514Z,58.25
2019-06-01T03:30:18.686Z,58.33
2019-06-01T03:34:24.403Z,58.55
2019-06-01T03:38:30.398Z,58.39
2019-06-01T03:42:36.213Z,58.15
2019-06-01T03:46:41.901Z,58.01
2019-06-01T03:50:47.731Z,58.12
2019-06-01T03:54:53.426Z,58.09
2019-06-01T03:58:59.099Z,58.88
2019-06-01T04:03:05.065Z,58.16
2019-06-01T04:07:12.467Z,58.53
2019-06-01T04:11:18.242Z,58.64
2019-06-01T04:15:23.926Z,58.47
2019-06-01T04:19:29.682Z,58.56
2019-06-01T04:23:36.436Z,58.45
2019-06-01T04:27:42.316Z,57.99
2019-06-01T04:31:48.523Z,57.57
2019-06-01T04:35:54.230Z,57.41
2019-06-01T04:39:59.884Z,56.27
2019-06-01T04:44:07.846Z,56.85
2019-06-01T04:48:14.686Z,56.29
2019-06-01T04:52:20.726Z,55.97
2019-06-01T04:56:26.404Z,55.51
2019-06-01T05:00:32.347Z,55.37
2019-06-01T05:04:38.022Z,55.48
2019-06-01T05:08:43.804Z,55.13
2019-06-01T05:12:49.632Z,55.07
2019-06-01T05:16:55.384Z,54.55
2019-06-01T05:21:01.183Z,54.43
2019-06-01T05:25:09.028Z,54.15
2019-06-01T05:29:15.690Z,53.92
2019-06-01T05:33:36.546Z,53.78
2019-06-01T05:37:29.081Z,53.47
2019-06-01T05:41:34.749Z,53.99
2019-06-01T05:45:40.473Z,53.56
2019-06-01T05:49:46.144Z,53.25
2019-06-01T05:53:51.993Z,52.58
2019-06-01T05:57:57.682Z,52.58
2019-06-01T06:02:03.350Z,52.07
2019-06-01T06:06:09.220Z,51.71
2019-06-01T06:10:16.023Z,51.80
2019-06-01T06:14:22.558Z,51.73
2019-06-01T06:18:28.342Z,51.30
2019-06-01T06:22:34.162Z,51.59
2019-06-01T06:26:39.854Z,50.80
2019-06-01T06:30:45.542Z,50.63
2019-06-01T06:34:51.213Z,50.22
2019-06-01T06:38:56.907Z,49.57
2019-06-01T06:43:02.595Z,49.62
2019-06-01T06:47:08.417Z,49.27
2019-06-01T06:52:09.045Z,48.81
2019-06-01T06:56:15.689Z,48.38
2019-06-01T07:00:22.660Z,47.76
2019-06-01T07:04:28.738Z,46.51
2019-06-01T07:08:34.504Z,45.76
2019-06-01T07:12:40.176Z,45.25
2019-06-01T07:16:45.899Z,44.75
2019-06-01T07:20:51.614Z,43.84
2019-06-01T07:24:57.329Z,43.73
2019-06-01T07:29:03.007Z,43.15
2019-06-01T07:33:09.790Z,42.60
2019-06-01T07:37:15.580Z,40.68
2019-06-01T07:41:22.463Z,40.70
2019-06-01T07:45:29.038Z,39.25
2019-06-01T07:49:36.357Z,38.37
2019-06-01T07:53:42.068Z,38.56
2019-06-01T07:57:47.747Z,38.58
2019-06-01T08:01:53.554Z,37.38
2019-06-01T08:05:59.305Z,37.08
2019-06-01T08:10:07.202Z,37.13
2019-06-01T08:14:12.955Z,36.61
2019-06-01T08:18:18.633Z,36.06
2019-06-01T08:22:24.318Z,35.18
2019-06-01T08:26:30.636Z,35.23
2019-06-01T08:30:36.417Z,34.45
2019-06-01T08:34:42.089Z,32.89
2019-06-01T08:38:48.363Z,31.81
2019-06-01T08:42:54.090Z,30.92
2019-06-01T08:46:59.950Z,31.54
2019-06-01T08:51:05.707Z,30.62
2019-06-01T08:55:12.080Z,30.29
2019-06-01T08:59:17.881Z,30.46
2019-06-01T09:03:23.600Z,29.92
2019-06-01T09:07:29.271Z,30.17
2019-06-01T09:11:35.377Z,29.45
2019-06-01T09:15:41.074Z,28.12
2019-06-01T09:19:46.785Z,28.17
2019-06-01T09:23:52.511Z,27.68
2019-06-01T09:27:58.281Z,27.25
2019-06-01T09:32:04.059Z,25.75
2019-06-01T09:36:09.819Z,26.33
2019-06-01T09:40:17.269Z,24.89
2019-06-01T09:44:22.973Z,25.35
2019-06-01T09:48:29.364Z,25.32
2019-06-01T09:52:35.596Z,24.94
2019-06-01T09:56:41.429Z,24.72
2019-06-01T10:00:48.713Z,23.70
2019-06-01T10:04:54.595Z,23.09
2019-06-01T10:09:00.266Z,23.83
2019-06-01T10:13:07.912Z,23.83
2019-06-01T10:17:13.673Z,23.30
2019-06-01T10:21:19.424Z,23.27
2019-06-01T10:25:27.801Z,22.11
2019-06-01T10:29:34.603Z,22.13
2019-06-01T10:33:40.372Z,22.04
2019-06-01T10:37:46.134Z,22.64
2019-06-01T10:41:51.826Z,21.48
2019-06-01T10:45:57.525Z,21.56
2019-06-01T10:50:04.367Z,20.96
2019-06-01T10:54:10.087Z,20.87
2019-06-01T10:58:16.042Z,20.81
2019-06-01T11:02:21.761Z,19.40
2019-06-01T11:06:36.661Z,19.64
2019-06-01T11:10:36.890Z,20.10
2019-06-01T11:14:43.329Z,19.60
2019-06-01T11:18:49.100Z,19.59
2019-06-01T11:22:54.941Z,20.27
2019-06-01T11:27:00.672Z,19.61
2019-06-01T11:31:07.067Z,19.50
2019-06-01T11:35:13.870Z,19.11
2019-06-01T11:39:19.673Z,19.25
2019-06-01T11:43:26.324Z,19.70
2019-06-01T11:47:32.078Z,20.32
2019-06-01T11:51:39.402Z,19.16
2019-06-01T11:55:45.573Z,18.88
2019-06-01T11:59:51.351Z,18.20
2019-06-01T12:03:57.169Z,18.83
2019-06-01T12:08:02.928Z,18.51
2019-06-01T12:12:08.647Z,18.79
2019-06-01T12:16:14.481Z,17.99
2019-06-01T12:20:21.075Z,18.16
2019-06-01T12:24:26.924Z,18.16
2019-06-01T12:28:32.783Z,18.16
2019-06-01T12:32:39.735Z,18.53
2019-06-01T12:36:46.429Z,19.07
2019-06-01T12:40:52.231Z,18.06
2019-06-01T12:44:58.103Z,18.08
2019-06-01T12:49:03.794Z,18.68
2019-06-01T12:53:09.471Z,18.62
2019-06-01T12:57:15.249Z,19.21
2019-06-01T13:01:21.055Z,19.45
2019-06-01T13:05:26.906Z,20.25
2019-06-01T13:09:33.591Z,19.26
2019-06-01T13:13:39.294Z,19.65
2019-06-01T13:17:45.330Z,19.74
2019-06-01T13:21:51.748Z,19.27
2019-06-01T13:25:57.482Z,19.52
2019-06-01T13:30:04.378Z,20.26
2019-06-01T13:34:10.069Z,21.49
2019-06-01T13:38:15.859Z,24.64
2019-06-01T13:42:21.497Z,25.27
2019-06-01T13:46:27.272Z,25.22
2019-06-01T13:50:32.961Z,23.15
2019-06-01T13:54:40.206Z,21.91
2019-06-01T13:58:46.324Z,22.33
2019-06-01T14:02:55.519Z,21.62
2019-06-01T14:06:59.592Z,22.83
2019-06-01T14:11:08.498Z,23.00
2019-06-01T14:15:15.092Z,23.72
2019-06-01T14:19:21.606Z,23.06
2019-06-01T14:23:27.349Z,22.90
2019-06-01T14:31:38.791Z,23.78
2019-06-01T14:35:44.725Z,24.98
2019-06-01T14:39:50.859Z,24.32
2019-06-01T14:43:57.780Z,23.48
2019-06-01T14:48:03.488Z,23.69
2019-06-01T14:52:09.208Z,23.29
2019-06-01T14:56:14.884Z,24.33
2019-06-01T15:00:22.202Z,24.77
2019-06-01T15:04:28.028Z,24.58
2019-06-01T15:08:33.710Z,24.97
2019-06-01T15:12:39.637Z,24.24
2019-06-01T15:16:46.362Z,24.72
2019-06-01T15:20:52.071Z,25.43
2019-06-01T15:24:58.748Z,24.88
2019-06-01T15:29:04.897Z,25.27
2019-06-01T15:33:10.603Z,25.56
2019-06-01T15:37:16.302Z,26.64
2019-06-01T15:41:22.074Z,26.10
2019-06-01T15:45:27.839Z,27.46
2019-06-01T15:49:33.548Z,27.10
2019-06-01T15:53:39.314Z,27.41
2019-06-01T15:57:45.083Z,27.03
2019-06-01T16:01:50.852Z,27.85
2019-06-01T16:05:57.062Z,27.63
2019-06-01T16:10:06.565Z,27.91
2019-06-01T16:14:10.605Z,27.61
2019-06-01T16:18:17.908Z,27.56
2019-06-01T16:22:23.539Z,27.55
2019-06-01T16:26:29.279Z,28.32
2019-06-01T16:30:34.957Z,28.13
2019-06-01T16:34:40.788Z,28.60
2019-06-01T16:38:46.471Z,28.28
2019-06-01T16:42:52.163Z,29.72
2019-06-01T16:46:57.944Z,28.75
2019-06-01T16:51:04.157Z,29.14
2019-06-01T16:55:11.761Z,29.54
2019-06-01T16:59:17.665Z,29.11
2019-06-01T17:03:23.428Z,29.05
2019-06-01T17:07:29.138Z,30.04
2019-06-01T17:11:34.824Z,29.56
2019-06-01T17:15:40.751Z,29.91
2019-06-01T17:19:47.615Z,30.03
2019-06-01T17:23:53.462Z,31.08
2019-06-01T17:28:00.118Z,31.07
2019-06-01T17:32:21.540Z,31.99
2019-06-01T17:40:36.762Z,31.03
2019-06-01T17:44:31.798Z,30.71
2019-06-01T17:48:37.779Z,30.65
2019-06-01T17:52:43.896Z,30.95
2019-06-01T17:56:49.674Z,30.80
2019-06-01T18:00:56.537Z,31.04
2019-06-01T18:05:03.948Z,30.96
2019-06-01T18:09:12.150Z,30.74
2019-06-01T18:13:17.933Z,30.84
2019-06-01T18:17:23.840Z,31.89
2019-06-01T18:21:33.362Z,32.71
2019-06-01T18:25:37.030Z,33.05
2019-06-01T18:29:48.451Z,31.64
2019-06-01T18:33:53.523Z,33.39
2019-06-01T18:37:59.470Z,34.31
2019-06-01T18:42:06.283Z,34.51
2019-06-01T18:46:12.253Z,34.80
2019-06-01T18:50:19.290Z,35.19
2019-06-01T18:54:25.110Z,35.57
2019-06-01T18:58:30.826Z,36.67
2019-06-01T19:02:36.735Z,36.78
2019-06-01T19:06:42.572Z,36.46
2019-06-01T19:10:49.343Z,36.97
2019-06-01T19:14:55.454Z,37.92
2019-06-01T19:19:01.203Z,38.04
2019-06-01T19:23:07.061Z,38.13
2019-06-01T19:27:12.899Z,38.25
2019-06-01T19:31:18.761Z,38.45
2019-06-01T19:35:24.505Z,38.72
2019-06-01T19:39:32.668Z,38.96
2019-06-01T19:43:38.417Z,39.54
2019-06-01T19:47:44.241Z,39.39
2019-06-01T19:51:49.941Z,39.19
2019-06-01T19:55:55.620Z,39.63
2019-06-01T20:00:01.300Z,39.62
2019-06-01T20:04:07.208Z,39.83
2019-06-01T20:08:14.212Z,40.31
2019-06-01T20:12:20.584Z,40.78
2019-06-01T20:16:26.554Z,41.03
2019-06-01T20:20:32.209Z,41.43
2019-06-01T20:24:38.002Z,41.76
2019-06-01T20:28:43.758Z,41.87
2019-06-01T20:32:49.456Z,41.90
2019-06-01T20:36:55.147Z,42.26
2019-06-01T20:41:00.849Z,42.61
2019-06-01T20:45:10.605Z,43.06
2019-06-01T20:49:16.835Z,43.89
2019-06-01T20:53:23.263Z,43.71
2019-06-01T20:57:29.066Z,43.91
2019-06-01T21:01:34.781Z,44.08
2019-06-01T21:05:40.990Z,43.97
2019-06-01T21:09:47.306Z,44.35
2019-06-01T21:13:54.064Z,44.81
2019-06-01T21:17:59.760Z,44.53
2019-06-01T21:22:06.121Z,44.32
2019-06-01T21:26:11.846Z,44.43
2019-06-01T21:30:18.803Z,44.83
2019-06-01T21:34:25.590Z,45.29
2019-06-01T21:38:31.372Z,45.40
2019-06-01T21:42:38.496Z,45.77
2019-06-01T21:46:44.753Z,46.17
2019-06-01T21:50:50.705Z,45.87
2019-06-01T21:54:56.420Z,45.92
2019-06-01T21:59:03.134Z,46.51
2019-06-01T22:03:09.473Z,46.41
2019-06-01T22:07:15.276Z,46.66
2019-06-01T22:11:21.554Z,46.54
2019-06-01T22:15:28.034Z,46.49
2019-06-01T22:19:33.825Z,46.36
2019-06-01T22:23:39.545Z,46.33
2019-06-01T22:27:45.331Z,46.25
2019-06-01T22:31:51.055Z,46.45
2019-06-01T22:35:56.750Z,46.90
2019-06-01T22:40:02.824Z,47.25
2019-06-01T22:44:08.856Z,47.13
2019-06-01T22:48:14.693Z,46.89
2019-06-01T22:52:20.969Z,46.84
2019-06-01T22:56:27.915Z,46.61
2019-06-01T23:00:33.709Z,46.73
2019-06-01T23:04:39.484Z,47.05
2019-06-01T23:08:45.452Z,47.33
2019-06-01T23:12:51.214Z,47.38
2019-06-01T23:16:56.917Z,47.38
2019-06-01T23:21:02.633Z,47.31
2019-06-01T23:25:09.214Z,47.41
2019-06-01T23:29:14.961Z,47.34
2019-06-01T23:33:20.696Z,47.10
2019-06-01T23:37:26.734Z,47.08
2019-06-01T23:41:32.982Z,47.53
2019-06-01T23:45:39.834Z,47.29
2019-06-01T23:49:45.620Z,47.18
2019-06-01T23:53:51.488Z,47.64
2019-06-01T23:57:57.202Z,47.79
